createdAt,value
2017-07-06T00:03:04.997Z,8
2017-07-06T00:13:05.139Z,10
2017-07-06T00:23:05.088Z,10
2017-07-06T00:33:05.566Z,10
2017-07-06T00:43:04.550Z,10
2017-07-06T00:53:04.552Z,10
2017-07-06T01:03:04.626Z,10
2017-07-06T01:13:11.157Z,11
2017-07-06T01:23:05.411Z,11
2017-07-06T01:33:04.705Z,11
2017-07-06T01:43:04.822Z,12
2017-07-06T01:53:04.652Z,14
2017-07-06T02:03:04.609Z,13
2017-07-06T02:13:04.964Z,15
2017-07-06T02:23:04.820Z,11
2017-07-06T02:33:05.522Z,16
2017-07-06T02:43:05.291Z,18
2017-07-06T02:53:05.652Z,16
2017-07-06T03:03:05.266Z,24
2017-07-06T03:13:06.545Z,22
2017-07-06T03:23:04.663Z,22
2017-07-06T03:33:04.689Z,21
2017-07-06T03:43:04.686Z,21
2017-07-06T03:53:04.783Z,19
2017-07-06T04:03:04.651Z,18
2017-07-06T04:13:04.738Z,18
2017-07-06T04:23:04.946Z,18
2017-07-06T04:33:04.752Z,18
2017-07-06T04:43:04.742Z,18
2017-07-06T04:53:05.039Z,18
2017-07-06T05:03:04.689Z,18
2017-07-06T05:13:04.582Z,16
2017-07-06T05:23:04.796Z,14
2017-07-06T05:33:04.660Z,14
2017-07-06T05:43:04.693Z,12
2017-07-06T05:53:04.847Z,13
2017-07-06T06:03:04.710Z,13
2017-07-06T06:13:04.828Z,10
2017-07-06T06:23:04.720Z,9
2017-07-06T06:33:04.757Z,8
2017-07-06T06:43:04.819Z,7
2017-07-06T06:53:04.612Z,7
2017-07-06T07:03:05.195Z,7
2017-07-06T07:13:04.962Z,6
2017-07-06T07:23:05.628Z,6
2017-07-06T07:33:04.969Z,6
2017-07-06T07:43:04.857Z,5
2017-07-06T07:53:04.694Z,6
2017-07-06T08:03:04.714Z,7
2017-07-06T08:13:04.726Z,6
2017-07-06T08:23:04.682Z,6
2017-07-06T08:33:04.680Z,5
2017-07-06T08:43:04.844Z,5
2017-07-06T08:53:04.655Z,6
2017-07-06T09:03:04.764Z,4
2017-07-06T09:13:04.698Z,5
2017-07-06T09:23:04.749Z,6
2017-07-06T09:33:04.796Z,8
2017-07-06T09:43:04.869Z,8
2017-07-06T09:53:04.762Z,8
2017-07-06T10:03:04.790Z,8
2017-07-06T10:13:04.730Z,7
2017-07-06T10:23:04.919Z,6
2017-07-06T10:33:04.799Z,6
2017-07-06T10:43:04.781Z,6
2017-07-06T10:53:04.783Z,6
2017-07-06T11:03:04.771Z,6
2017-07-06T11:13:04.790Z,7
2017-07-06T11:23:04.747Z,6
2017-07-06T11:33:04.813Z,6
2017-07-06T11:43:04.737Z,6
2017-07-06T11:53:04.795Z,4
2017-07-06T12:03:04.785Z,5
2017-07-06T12:13:04.764Z,5
2017-07-06T12:23:04.913Z,4
2017-07-06T12:33:04.805Z,5
2017-07-06T12:43:04.802Z,4
2017-07-06T12:53:05.322Z,4
2017-07-06T13:03:04.898Z,4
2017-07-06T13:13:04.828Z,4
2017-07-06T13:23:04.800Z,4
2017-07-06T13:33:05.903Z,4
2017-07-06T13:43:07.408Z,5
2017-07-06T13:53:05.260Z,4
2017-07-06T14:03:05.166Z,4
2017-07-06T14:13:05.700Z,3
2017-07-06T14:23:04.907Z,4
2017-07-06T14:33:05.579Z,4
2017-07-06T14:43:05.608Z,4
2017-07-06T14:53:05.353Z,4
2017-07-06T15:03:06.393Z,4
2017-07-06T15:13:05.381Z,3
2017-07-06T15:23:05.882Z,3
2017-07-06T15:33:04.824Z,4
2017-07-06T15:43:04.823Z,3
2017-07-06T15:53:04.910Z,4
2017-07-06T16:03:05.103Z,4
2017-07-06T16:13:04.958Z,4
2017-07-06T16:23:04.835Z,4
2017-07-06T16:33:04.802Z,4
2017-07-06T16:43:04.824Z,4
2017-07-06T16:53:06.333Z,4
2017-07-06T17:03:04.816Z,4
2017-07-06T17:13:04.920Z,4
2017-07-06T17:23:05.642Z,5
2017-07-06T17:33:05.058Z,4
2017-07-06T17:43:04.864Z,4
2017-07-06T17:53:04.963Z,5
2017-07-06T18:03:04.830Z,5
2017-07-06T18:13:04.872Z,5
2017-07-06T18:23:05.330Z,5
2017-07-06T18:33:04.850Z,7
2017-07-06T18:43:04.926Z,6
2017-07-06T18:53:04.985Z,5
2017-07-06T19:03:05.408Z,5
2017-07-06T19:13:04.924Z,9
2017-07-06T19:23:04.844Z,5
2017-07-06T19:33:04.918Z,31
2017-07-06T19:43:05.477Z,16
2017-07-06T19:53:04.938Z,7
2017-07-06T20:03:04.867Z,8
2017-07-06T20:13:05.202Z,7
2017-07-06T20:23:04.921Z,8
2017-07-06T20:33:06.558Z,11
2017-07-06T20:43:05.000Z,9
2017-07-06T20:53:06.632Z,16
2017-07-06T21:03:05.542Z,10
2017-07-06T21:13:07.003Z,15
2017-07-06T21:23:05.227Z,11
2017-07-06T21:33:04.838Z,15
2017-07-06T21:43:05.036Z,15
2017-07-06T21:53:05.015Z,17
2017-07-06T22:03:04.973Z,18
2017-07-06T22:13:05.173Z,24
2017-07-06T22:23:04.893Z,27
2017-07-06T22:33:04.966Z,31
2017-07-06T22:43:05.854Z,33
2017-07-06T22:53:11.313Z,40
2017-07-06T23:03:04.854Z,40
2017-07-06T23:13:04.925Z,31
2017-07-06T23:23:05.485Z,29
2017-07-06T23:33:20.762Z,25
2017-07-06T23:43:06.013Z,15
2017-07-06T23:53:04.991Z,15
